Terminal Aerodrome Forecast
Issued by NWS

Home | Current Version | Previous Version | Text Only | Print | Product List | Glossary Off
Versions: 1 2 3 4 5 6 7 8 9 10 11 12 13 14

000
FTUS43 KGRB 270520
TAFMTW
TAF
KMTW 270520Z 2706/2806 VRB03KT 3SM BR SCT002
      TEMPO 2708/2712 1SM BR BKN002
     FM271400 19005KT P6SM SCT015 SCT100
     FM271700 16010KT P6SM SCT030 SCT080
     FM272200 17007KT P6SM VCSH SCT035 BKN080
     FM280200 VRB03KT P6SM SCT035 BKN080=

USA.gov is the U.S. government's official web portal to all federal, state and local government web resources and services.